sensor_id;sensor_type;location;lat;lon;timestamp;P1;durP1;ratioP1;P2;durP2;ratioP2
78197;SDS011;67472;51.554;7.812;2023-03-13T00:01:51;12.05;;;4.47;;
78197;SDS011;67472;51.554;7.812;2023-03-13T00:04:37;16.38;;;4.22;;
78197;SDS011;67472;51.554;7.812;2023-03-13T00:07:22;15.10;;;4.07;;
78197;SDS011;67472;51.554;7.812;2023-03-13T00:10:06;22.52;;;5.15;;
78197;SDS011;67472;51.554;7.812;2023-03-13T00:12:51;18.35;;;3.60;;
78197;SDS011;67472;51.554;7.812;2023-03-13T00:15:36;20.92;;;3.97;;
78197;SDS011;67472;51.554;7.812;2023-03-13T00:18:21;16.95;;;3.40;;
78197;SDS011;67472;51.554;7.812;2023-03-13T00:21:06;18.15;;;3.72;;
78197;SDS011;67472;51.554;7.812;2023-03-13T00:23:53;20.13;;;3.22;;
78197;SDS011;67472;51.554;7.812;2023-03-13T00:26:42;16.25;;;2.90;;
78197;SDS011;67472;51.554;7.812;2023-03-13T00:29:27;17.40;;;3.38;;
78197;SDS011;67472;51.554;7.812;2023-03-13T00:32:13;11.45;;;3.15;;
78197;SDS011;67472;51.554;7.812;2023-03-13T00:34:58;18.85;;;4.60;;
78197;SDS011;67472;51.554;7.812;2023-03-13T00:37:42;17.95;;;3.80;;
78197;SDS011;67472;51.554;7.812;2023-03-13T00:40:27;21.70;;;4.03;;
78197;SDS011;67472;51.554;7.812;2023-03-13T00:43:11;15.55;;;3.50;;
78197;SDS011;67472;51.554;7.812;2023-03-13T00:45:57;13.77;;;3.03;;
78197;SDS011;67472;51.554;7.812;2023-03-13T00:48:42;15.02;;;3.33;;
78197;SDS011;67472;51.554;7.812;2023-03-13T00:51:26;18.83;;;3.33;;
78197;SDS011;67472;51.554;7.812;2023-03-13T00:54:11;14.32;;;3.20;;
78197;SDS011;67472;51.554;7.812;2023-03-13T00:56:56;15.00;;;3.22;;
78197;SDS011;67472;51.554;7.812;2023-03-13T00:59:40;16.65;;;5.25;;
78197;SDS011;67472;51.554;7.812;2023-03-13T01:02:25;14.88;;;2.90;;
78197;SDS011;67472;51.554;7.812;2023-03-13T01:05:10;23.70;;;3.60;;
78197;SDS011;67472;51.554;7.812;2023-03-13T01:07:56;12.00;;;3.10;;
78197;SDS011;67472;51.554;7.812;2023-03-13T01:10:40;13.73;;;3.42;;
78197;SDS011;67472;51.554;7.812;2023-03-13T01:13:25;19.70;;;3.78;;
78197;SDS011;67472;51.554;7.812;2023-03-13T01:16:14;25.20;;;4.22;;
78197;SDS011;67472;51.554;7.812;2023-03-13T01:19:02;20.45;;;3.80;;
78197;SDS011;67472;51.554;7.812;2023-03-13T01:21:49;19.77;;;3.90;;
78197;SDS011;67472;51.554;7.812;2023-03-13T01:24:34;13.38;;;3.30;;
78197;SDS011;67472;51.554;7.812;2023-03-13T01:27:18;15.77;;;3.67;;
78197;SDS011;67472;51.554;7.812;2023-03-13T01:30:03;16.90;;;3.42;;
78197;SDS011;67472;51.554;7.812;2023-03-13T01:32:49;21.20;;;4.18;;
78197;SDS011;67472;51.554;7.812;2023-03-13T01:35:33;16.90;;;3.65;;
78197;SDS011;67472;51.554;7.812;2023-03-13T01:38:17;17.15;;;4.10;;
78197;SDS011;67472;51.554;7.812;2023-03-13T01:41:02;14.85;;;3.35;;
78197;SDS011;67472;51.554;7.812;2023-03-13T01:43:49;12.27;;;3.45;;
78197;SDS011;67472;51.554;7.812;2023-03-13T01:46:34;17.42;;;3.33;;
78197;SDS011;67472;51.554;7.812;2023-03-13T01:52:21;15.18;;;3.55;;
78197;SDS011;67472;51.554;7.812;2023-03-13T01:55:20;18.33;;;3.45;;
78197;SDS011;67472;51.554;7.812;2023-03-13T01:58:07;16.20;;;3.10;;
78197;SDS011;67472;51.554;7.812;2023-03-13T02:00:53;13.70;;;3.40;;
78197;SDS011;67472;51.554;7.812;2023-03-13T02:03:37;20.27;;;5.07;;
78197;SDS011;67472;51.554;7.812;2023-03-13T02:06:23;15.60;;;3.70;;
78197;SDS011;67472;51.554;7.812;2023-03-13T02:09:11;10.95;;;2.92;;
78197;SDS011;67472;51.554;7.812;2023-03-13T02:12:01;23.45;;;3.33;;
78197;SDS011;67472;51.554;7.812;2023-03-13T02:14:49;15.52;;;3.17;;
78197;SDS011;67472;51.554;7.812;2023-03-13T02:17:35;13.48;;;3.42;;
78197;SDS011;67472;51.554;7.812;2023-03-13T02:20:21;16.38;;;4.07;;
78197;SDS011;67472;51.554;7.812;2023-03-13T02:23:21;14.88;;;3.10;;
78197;SDS011;67472;51.554;7.812;2023-03-13T02:26:10;15.98;;;3.13;;
78197;SDS011;67472;51.554;7.812;2023-03-13T02:28:57;13.70;;;3.15;;
78197;SDS011;67472;51.554;7.812;2023-03-13T02:31:48;14.63;;;2.80;;
78197;SDS011;67472;51.554;7.812;2023-03-13T02:34:34;18.83;;;3.65;;
78197;SDS011;67472;51.554;7.812;2023-03-13T02:37:22;12.60;;;2.85;;
78197;SDS011;67472;51.554;7.812;2023-03-13T02:40:10;15.35;;;2.70;;
78197;SDS011;67472;51.554;7.812;2023-03-13T02:43:00;10.90;;;3.45;;
78197;SDS011;67472;51.554;7.812;2023-03-13T02:48:50;10.75;;;2.78;;
78197;SDS011;67472;51.554;7.812;2023-03-13T02:51:37;11.65;;;2.67;;
78197;SDS011;67472;51.554;7.812;2023-03-13T02:54:28;12.60;;;2.83;;
78197;SDS011;67472;51.554;7.812;2023-03-13T02:57:16;11.02;;;2.67;;
78197;SDS011;67472;51.554;7.812;2023-03-13T03:00:01;19.80;;;3.00;;
78197;SDS011;67472;51.554;7.812;2023-03-13T03:02:49;7.70;;;2.17;;
78197;SDS011;67472;51.554;7.812;2023-03-13T03:05:34;11.70;;;2.60;;
78197;SDS011;67472;51.554;7.812;2023-03-13T03:08:18;7.97;;;2.40;;
78197;SDS011;67472;51.554;7.812;2023-03-13T03:11:03;6.78;;;2.33;;
78197;SDS011;67472;51.554;7.812;2023-03-13T03:13:48;9.85;;;2.20;;
78197;SDS011;67472;51.554;7.812;2023-03-13T03:16:34;6.88;;;2.10;;
78197;SDS011;67472;51.554;7.812;2023-03-13T03:19:20;6.78;;;2.30;;
78197;SDS011;67472;51.554;7.812;2023-03-13T03:22:04;6.60;;;2.10;;
78197;SDS011;67472;51.554;7.812;2023-03-13T03:24:50;4.05;;;1.83;;
78197;SDS011;67472;51.554;7.812;2023-03-13T03:27:34;10.88;;;2.40;;
78197;SDS011;67472;51.554;7.812;2023-03-13T03:30:23;7.93;;;1.98;;
78197;SDS011;67472;51.554;7.812;2023-03-13T03:33:09;6.25;;;1.77;;
78197;SDS011;67472;51.554;7.812;2023-03-13T03:35:57;5.95;;;1.83;;
78197;SDS011;67472;51.554;7.812;2023-03-13T03:38:43;6.13;;;2.75;;
78197;SDS011;67472;51.554;7.812;2023-03-13T03:41:30;4.80;;;1.85;;
78197;SDS011;67472;51.554;7.812;2023-03-13T03:44:15;6.30;;;1.70;;
78197;SDS011;67472;51.554;7.812;2023-03-13T03:47:09;3.28;;;1.30;;
78197;SDS011;67472;51.554;7.812;2023-03-13T03:49:59;4.65;;;1.42;;
78197;SDS011;67472;51.554;7.812;2023-03-13T03:52:44;5.95;;;1.38;;
78197;SDS011;67472;51.554;7.812;2023-03-13T03:55:28;2.67;;;1.05;;
78197;SDS011;67472;51.554;7.812;2023-03-13T03:58:13;3.30;;;1.60;;
78197;SDS011;67472;51.554;7.812;2023-03-13T04:01:17;4.28;;;1.75;;
78197;SDS011;67472;51.554;7.812;2023-03-13T04:04:02;3.88;;;1.23;;
78197;SDS011;67472;51.554;7.812;2023-03-13T04:06:47;5.22;;;1.30;;
78197;SDS011;67472;51.554;7.812;2023-03-13T04:09:31;5.10;;;1.52;;
78197;SDS011;67472;51.554;7.812;2023-03-13T04:12:17;3.03;;;1.33;;
78197;SDS011;67472;51.554;7.812;2023-03-13T04:15:04;3.30;;;1.25;;
78197;SDS011;67472;51.554;7.812;2023-03-13T04:17:50;3.20;;;1.30;;
78197;SDS011;67472;51.554;7.812;2023-03-13T04:20:38;2.90;;;1.27;;
78197;SDS011;67472;51.554;7.812;2023-03-13T04:23:23;3.08;;;1.30;;
78197;SDS011;67472;51.554;7.812;2023-03-13T04:26:09;3.97;;;1.27;;
78197;SDS011;67472;51.554;7.812;2023-03-13T04:28:54;5.82;;;2.25;;
78197;SDS011;67472;51.554;7.812;2023-03-13T04:31:55;3.63;;;1.40;;
78197;SDS011;67472;51.554;7.812;2023-03-13T04:34:58;2.55;;;1.13;;
78197;SDS011;67472;51.554;7.812;2023-03-13T04:38:06;2.25;;;0.98;;
78197;SDS011;67472;51.554;7.812;2023-03-13T04:41:18;4.82;;;1.90;;
78197;SDS011;67472;51.554;7.812;2023-03-13T04:44:22;4.00;;;1.35;;
78197;SDS011;67472;51.554;7.812;2023-03-13T04:47:33;2.40;;;1.08;;
78197;SDS011;67472;51.554;7.812;2023-03-13T04:50:43;2.60;;;1.48;;
78197;SDS011;67472;51.554;7.812;2023-03-13T04:53:48;3.45;;;1.85;;
78197;SDS011;67472;51.554;7.812;2023-03-13T04:56:49;2.55;;;1.13;;
78197;SDS011;67472;51.554;7.812;2023-03-13T04:59:46;2.85;;;1.00;;
78197;SDS011;67472;51.554;7.812;2023-03-13T05:02:39;3.90;;;1.40;;
78197;SDS011;67472;51.554;7.812;2023-03-13T05:05:43;6.90;;;1.45;;
78197;SDS011;67472;51.554;7.812;2023-03-13T05:09:06;1.17;;;0.75;;
78197;SDS011;67472;51.554;7.812;2023-03-13T05:12:10;1.83;;;1.02;;
78197;SDS011;67472;51.554;7.812;2023-03-13T05:15:10;3.78;;;1.38;;
78197;SDS011;67472;51.554;7.812;2023-03-13T05:18:03;4.68;;;1.42;;
78197;SDS011;67472;51.554;7.812;2023-03-13T05:21:04;1.45;;;0.70;;
78197;SDS011;67472;51.554;7.812;2023-03-13T05:24:11;1.60;;;1.08;;
78197;SDS011;67472;51.554;7.812;2023-03-13T05:26:55;1.20;;;1.02;;
78197;SDS011;67472;51.554;7.812;2023-03-13T05:29:48;4.97;;;0.98;;
78197;SDS011;67472;51.554;7.812;2023-03-13T05:32:57;5.03;;;1.20;;
78197;SDS011;67472;51.554;7.812;2023-03-13T05:36:16;3.88;;;1.15;;
78197;SDS011;67472;51.554;7.812;2023-03-13T05:39:12;1.67;;;1.23;;
78197;SDS011;67472;51.554;7.812;2023-03-13T05:42:16;1.25;;;1.15;;
78197;SDS011;67472;51.554;7.812;2023-03-13T05:45:23;1.40;;;1.05;;
78197;SDS011;67472;51.554;7.812;2023-03-13T05:48:41;1.02;;;0.93;;
78197;SDS011;67472;51.554;7.812;2023-03-13T05:51:44;1.42;;;1.00;;
78197;SDS011;67472;51.554;7.812;2023-03-13T05:54:41;1.52;;;1.35;;
78197;SDS011;67472;51.554;7.812;2023-03-13T05:57:51;1.63;;;1.38;;
78197;SDS011;67472;51.554;7.812;2023-03-13T06:00:43;2.25;;;1.55;;
78197;SDS011;67472;51.554;7.812;2023-03-13T06:03:46;1.13;;;1.08;;
78197;SDS011;67472;51.554;7.812;2023-03-13T06:06:32;1.95;;;1.20;;
78197;SDS011;67472;51.554;7.812;2023-03-13T06:09:18;1.88;;;1.48;;
78197;SDS011;67472;51.554;7.812;2023-03-13T06:12:09;1.50;;;1.40;;
78197;SDS011;67472;51.554;7.812;2023-03-13T06:14:54;3.35;;;1.40;;
78197;SDS011;67472;51.554;7.812;2023-03-13T06:17:49;1.95;;;1.75;;
78197;SDS011;67472;51.554;7.812;2023-03-13T06:20:34;2.95;;;1.80;;
78197;SDS011;67472;51.554;7.812;2023-03-13T06:23:18;2.17;;;1.63;;
78197;SDS011;67472;51.554;7.812;2023-03-13T06:26:03;1.70;;;1.60;;
78197;SDS011;67472;51.554;7.812;2023-03-13T06:28:47;2.45;;;1.50;;
78197;SDS011;67472;51.554;7.812;2023-03-13T06:31:32;1.92;;;1.60;;
78197;SDS011;67472;51.554;7.812;2023-03-13T06:34:16;2.85;;;1.90;;
78197;SDS011;67472;51.554;7.812;2023-03-13T06:37:00;2.35;;;1.70;;
78197;SDS011;67472;51.554;7.812;2023-03-13T06:39:45;2.80;;;1.60;;
78197;SDS011;67472;51.554;7.812;2023-03-13T06:42:29;2.17;;;1.80;;
78197;SDS011;67472;51.554;7.812;2023-03-13T06:45:15;2.60;;;1.60;;
78197;SDS011;67472;51.554;7.812;2023-03-13T06:48:00;3.33;;;1.60;;
78197;SDS011;67472;51.554;7.812;2023-03-13T06:50:44;1.60;;;1.50;;
78197;SDS011;67472;51.554;7.812;2023-03-13T06:53:29;1.55;;;1.45;;
78197;SDS011;67472;51.554;7.812;2023-03-13T06:56:13;1.80;;;1.45;;
78197;SDS011;67472;51.554;7.812;2023-03-13T06:58:58;1.50;;;1.40;;
78197;SDS011;67472;51.554;7.812;2023-03-13T07:01:43;2.17;;;1.20;;
78197;SDS011;67472;51.554;7.812;2023-03-13T07:04:27;2.00;;;1.55;;
78197;SDS011;67472;51.554;7.812;2023-03-13T07:07:12;2.95;;;1.23;;
78197;SDS011;67472;51.554;7.812;2023-03-13T07:09:57;1.48;;;1.38;;
78197;SDS011;67472;51.554;7.812;2023-03-13T07:12:44;1.45;;;1.13;;
78197;SDS011;67472;51.554;7.812;2023-03-13T07:15:28;1.00;;;1.00;;
78197;SDS011;67472;51.554;7.812;2023-03-13T07:18:13;2.10;;;1.15;;
78197;SDS011;67472;51.554;7.812;2023-03-13T07:21:00;2.08;;;1.25;;
78197;SDS011;67472;51.554;7.812;2023-03-13T07:23:48;2.67;;;1.10;;
78197;SDS011;67472;51.554;7.812;2023-03-13T07:26:34;1.13;;;1.05;;
78197;SDS011;67472;51.554;7.812;2023-03-13T07:29:19;2.00;;;1.48;;
78197;SDS011;67472;51.554;7.812;2023-03-13T07:32:03;1.70;;;1.17;;
78197;SDS011;67472;51.554;7.812;2023-03-13T07:34:47;1.20;;;1.15;;
78197;SDS011;67472;51.554;7.812;2023-03-13T07:37:32;1.77;;;1.35;;
78197;SDS011;67472;51.554;7.812;2023-03-13T07:40:16;3.65;;;1.52;;
78197;SDS011;67472;51.554;7.812;2023-03-13T07:43:01;2.58;;;1.20;;
78197;SDS011;67472;51.554;7.812;2023-03-13T07:46:19;1.80;;;1.35;;
78197;SDS011;67472;51.554;7.812;2023-03-13T07:48:58;2.85;;;1.27;;
78197;SDS011;67472;51.554;7.812;2023-03-13T07:51:42;2.75;;;1.40;;
78197;SDS011;67472;51.554;7.812;2023-03-13T07:54:27;4.80;;;1.20;;
78197;SDS011;67472;51.554;7.812;2023-03-13T07:57:13;2.60;;;1.90;;
78197;SDS011;67472;51.554;7.812;2023-03-13T07:59:57;4.13;;;2.40;;
78197;SDS011;67472;51.554;7.812;2023-03-13T08:02:42;5.35;;;1.88;;
78197;SDS011;67472;51.554;7.812;2023-03-13T08:05:27;2.10;;;1.90;;
78197;SDS011;67472;51.554;7.812;2023-03-13T08:08:12;5.05;;;1.83;;
78197;SDS011;67472;51.554;7.812;2023-03-13T08:10:59;1.70;;;1.35;;
78197;SDS011;67472;51.554;7.812;2023-03-13T08:13:47;1.60;;;1.50;;
78197;SDS011;67472;51.554;7.812;2023-03-13T08:16:35;4.30;;;2.60;;
78197;SDS011;67472;51.554;7.812;2023-03-13T08:19:21;6.30;;;1.77;;
78197;SDS011;67472;51.554;7.812;2023-03-13T08:22:06;4.45;;;1.67;;
78197;SDS011;67472;51.554;7.812;2023-03-13T08:24:58;1.77;;;1.67;;
78197;SDS011;67472;51.554;7.812;2023-03-13T08:27:48;5.65;;;1.90;;
78197;SDS011;67472;51.554;7.812;2023-03-13T08:30:32;4.72;;;2.45;;
78197;SDS011;67472;51.554;7.812;2023-03-13T08:33:17;2.92;;;2.08;;
78197;SDS011;67472;51.554;7.812;2023-03-13T08:38:58;3.60;;;1.73;;
78197;SDS011;67472;51.554;7.812;2023-03-13T08:41:44;3.45;;;1.83;;
78197;SDS011;67472;51.554;7.812;2023-03-13T08:44:29;3.13;;;1.25;;
78197;SDS011;67472;51.554;7.812;2023-03-13T08:47:14;2.17;;;1.95;;
78197;SDS011;67472;51.554;7.812;2023-03-13T08:49:58;4.80;;;2.03;;
78197;SDS011;67472;51.554;7.812;2023-03-13T08:52:44;3.00;;;1.60;;
78197;SDS011;67472;51.554;7.812;2023-03-13T08:55:30;7.95;;;1.85;;
78197;SDS011;67472;51.554;7.812;2023-03-13T08:58:15;5.07;;;1.70;;
78197;SDS011;67472;51.554;7.812;2023-03-13T09:01:03;3.53;;;2.00;;
78197;SDS011;67472;51.554;7.812;2023-03-13T09:03:49;6.03;;;2.13;;
78197;SDS011;67472;51.554;7.812;2023-03-13T09:06:36;8.15;;;2.17;;
78197;SDS011;67472;51.554;7.812;2023-03-13T09:09:25;9.20;;;2.53;;
78197;SDS011;67472;51.554;7.812;2023-03-13T09:12:09;4.93;;;2.22;;
78197;SDS011;67472;51.554;7.812;2023-03-13T09:14:54;4.13;;;2.17;;
78197;SDS011;67472;51.554;7.812;2023-03-13T09:17:39;5.85;;;2.80;;
78197;SDS011;67472;51.554;7.812;2023-03-13T09:20:23;2.28;;;1.90;;
78197;SDS011;67472;51.554;7.812;2023-03-13T09:23:08;5.93;;;2.10;;
78197;SDS011;67472;51.554;7.812;2023-03-13T09:25:53;3.25;;;2.10;;
78197;SDS011;67472;51.554;7.812;2023-03-13T09:28:38;8.88;;;2.22;;
78197;SDS011;67472;51.554;7.812;2023-03-13T09:31:29;4.65;;;3.03;;
78197;SDS011;67472;51.554;7.812;2023-03-13T09:34:14;3.10;;;2.30;;
78197;SDS011;67472;51.554;7.812;2023-03-13T09:37:00;5.13;;;2.03;;
78197;SDS011;67472;51.554;7.812;2023-03-13T09:39:49;3.25;;;1.92;;
78197;SDS011;67472;51.554;7.812;2023-03-13T09:42:45;8.40;;;2.30;;
78197;SDS011;67472;51.554;7.812;2023-03-13T09:45:37;7.90;;;2.92;;
78197;SDS011;67472;51.554;7.812;2023-03-13T09:48:29;5.10;;;2.63;;
78197;SDS011;67472;51.554;7.812;2023-03-13T09:51:18;12.15;;;2.72;;
78197;SDS011;67472;51.554;7.812;2023-03-13T09:58:08;9.70;;;2.47;;
78197;SDS011;67472;51.554;7.812;2023-03-13T10:00:37;9.55;;;2.70;;
78197;SDS011;67472;51.554;7.812;2023-03-13T10:06:23;7.97;;;3.33;;
78197;SDS011;67472;51.554;7.812;2023-03-13T10:09:16;6.80;;;2.50;;
78197;SDS011;67472;51.554;7.812;2023-03-13T10:12:19;6.97;;;2.40;;
78197;SDS011;67472;51.554;7.812;2023-03-13T10:18:17;6.88;;;2.67;;
78197;SDS011;67472;51.554;7.812;2023-03-13T10:21:18;5.80;;;2.72;;
78197;SDS011;67472;51.554;7.812;2023-03-13T10:27:10;3.78;;;2.88;;
78197;SDS011;67472;51.554;7.812;2023-03-13T10:29:58;7.60;;;2.53;;
78197;SDS011;67472;51.554;7.812;2023-03-13T10:32:42;2.88;;;2.00;;
78197;SDS011;67472;51.554;7.812;2023-03-13T10:35:31;7.40;;;2.55;;
78197;SDS011;67472;51.554;7.812;2023-03-13T10:38:20;3.55;;;1.98;;
78197;SDS011;67472;51.554;7.812;2023-03-13T10:41:15;3.15;;;1.80;;
78197;SDS011;67472;51.554;7.812;2023-03-13T10:44:22;4.70;;;1.80;;
78197;SDS011;67472;51.554;7.812;2023-03-13T10:47:13;2.92;;;2.10;;
78197;SDS011;67472;51.554;7.812;2023-03-13T10:49:58;3.00;;;2.03;;
78197;SDS011;67472;51.554;7.812;2023-03-13T10:52:45;1.83;;;1.30;;
78197;SDS011;67472;51.554;7.812;2023-03-13T10:55:31;4.22;;;1.50;;
78197;SDS011;67472;51.554;7.812;2023-03-13T10:58:20;3.35;;;1.55;;
78197;SDS011;67472;51.554;7.812;2023-03-13T11:04:00;4.13;;;1.48;;
78197;SDS011;67472;51.554;7.812;2023-03-13T11:07:18;3.22;;;1.52;;
78197;SDS011;67472;51.554;7.812;2023-03-13T11:13:01;2.92;;;1.50;;
78197;SDS011;67472;51.554;7.812;2023-03-13T11:15:50;4.15;;;1.33;;
78197;SDS011;67472;51.554;7.812;2023-03-13T11:21:32;1.00;;;0.90;;
78197;SDS011;67472;51.554;7.812;2023-03-13T11:24:24;1.17;;;1.08;;
78197;SDS011;67472;51.554;7.812;2023-03-13T11:46:21;2.45;;;0.80;;
78197;SDS011;67472;51.554;7.812;2023-03-13T11:58:36;3.65;;;0.70;;
78197;SDS011;67472;51.554;7.812;2023-03-13T12:01:29;1.77;;;0.80;;
78197;SDS011;67472;51.554;7.812;2023-03-13T12:04:27;5.47;;;0.90;;
78197;SDS011;67472;51.554;7.812;2023-03-13T12:10:14;0.93;;;0.80;;
78197;SDS011;67472;51.554;7.812;2023-03-13T12:13:20;4.40;;;1.10;;
78197;SDS011;67472;51.554;7.812;2023-03-13T12:16:13;4.28;;;0.90;;
78197;SDS011;67472;51.554;7.812;2023-03-13T12:22:30;1.83;;;0.80;;
78197;SDS011;67472;51.554;7.812;2023-03-13T12:25:33;1.60;;;0.75;;
78197;SDS011;67472;51.554;7.812;2023-03-13T12:31:27;3.45;;;1.08;;
78197;SDS011;67472;51.554;7.812;2023-03-13T12:34:35;1.20;;;0.80;;
78197;SDS011;67472;51.554;7.812;2023-03-13T12:37:41;0.75;;;0.70;;
78197;SDS011;67472;51.554;7.812;2023-03-13T12:40:36;2.05;;;0.90;;
78197;SDS011;67472;51.554;7.812;2023-03-13T12:43:23;1.08;;;0.93;;
78197;SDS011;67472;51.554;7.812;2023-03-13T12:52:37;0.75;;;0.70;;
78197;SDS011;67472;51.554;7.812;2023-03-13T12:55:32;0.70;;;0.70;;
78197;SDS011;67472;51.554;7.812;2023-03-13T12:58:43;1.02;;;0.82;;
78197;SDS011;67472;51.554;7.812;2023-03-13T13:01:34;0.77;;;0.60;;
78197;SDS011;67472;51.554;7.812;2023-03-13T13:04:24;1.95;;;0.85;;
78197;SDS011;67472;51.554;7.812;2023-03-13T13:07:24;0.75;;;0.50;;
78197;SDS011;67472;51.554;7.812;2023-03-13T13:10:17;1.17;;;0.80;;
78197;SDS011;67472;51.554;7.812;2023-03-13T13:16:14;0.68;;;0.60;;
78197;SDS011;67472;51.554;7.812;2023-03-13T13:28:21;0.70;;;0.50;;
78197;SDS011;67472;51.554;7.812;2023-03-13T13:31:43;2.22;;;0.93;;
78197;SDS011;67472;51.554;7.812;2023-03-13T13:34:54;0.50;;;0.50;;
78197;SDS011;67472;51.554;7.812;2023-03-13T13:37:49;1.85;;;0.60;;
78197;SDS011;67472;51.554;7.812;2023-03-13T13:40:34;1.58;;;0.68;;
78197;SDS011;67472;51.554;7.812;2023-03-13T13:43:23;0.63;;;0.60;;
78197;SDS011;67472;51.554;7.812;2023-03-13T13:49:17;3.22;;;0.70;;
78197;SDS011;67472;51.554;7.812;2023-03-13T13:54:57;0.68;;;0.50;;
78197;SDS011;67472;51.554;7.812;2023-03-13T13:57:41;2.40;;;0.70;;
78197;SDS011;67472;51.554;7.812;2023-03-13T14:00:28;3.25;;;0.50;;
78197;SDS011;67472;51.554;7.812;2023-03-13T14:03:24;9.88;;;0.80;;
78197;SDS011;67472;51.554;7.812;2023-03-13T14:06:14;4.70;;;1.17;;
78197;SDS011;67472;51.554;7.812;2023-03-13T14:21:03;4.45;;;0.80;;
78197;SDS011;67472;51.554;7.812;2023-03-13T14:23:57;6.13;;;0.85;;
78197;SDS011;67472;51.554;7.812;2023-03-13T14:26:43;3.25;;;0.70;;
78197;SDS011;67472;51.554;7.812;2023-03-13T14:29:28;1.95;;;0.70;;
78197;SDS011;67472;51.554;7.812;2023-03-13T14:32:16;3.13;;;0.70;;
78197;SDS011;67472;51.554;7.812;2023-03-13T14:35:00;2.75;;;0.77;;
78197;SDS011;67472;51.554;7.812;2023-03-13T14:37:46;1.25;;;0.70;;
78197;SDS011;67472;51.554;7.812;2023-03-13T14:40:35;1.40;;;0.60;;
78197;SDS011;67472;51.554;7.812;2023-03-13T14:49:14;2.78;;;0.60;;
78197;SDS011;67472;51.554;7.812;2023-03-13T14:52:19;1.77;;;0.77;;
78197;SDS011;67472;51.554;7.812;2023-03-13T14:55:29;3.60;;;0.90;;
78197;SDS011;67472;51.554;7.812;2023-03-13T15:01:11;4.88;;;0.98;;
78197;SDS011;67472;51.554;7.812;2023-03-13T15:04:04;3.80;;;1.00;;
78197;SDS011;67472;51.554;7.812;2023-03-13T15:06:48;4.72;;;0.82;;
78197;SDS011;67472;51.554;7.812;2023-03-13T15:09:46;8.07;;;1.35;;
78197;SDS011;67472;51.554;7.812;2023-03-13T15:12:32;6.82;;;1.33;;
78197;SDS011;67472;51.554;7.812;2023-03-13T15:15:26;4.03;;;0.77;;
78197;SDS011;67472;51.554;7.812;2023-03-13T15:18:29;4.20;;;0.98;;
78197;SDS011;67472;51.554;7.812;2023-03-13T15:24:10;3.28;;;0.80;;
78197;SDS011;67472;51.554;7.812;2023-03-13T15:26:58;2.15;;;1.25;;
78197;SDS011;67472;51.554;7.812;2023-03-13T15:29:43;0.68;;;0.68;;
78197;SDS011;67472;51.554;7.812;2023-03-13T15:32:34;6.05;;;1.77;;
78197;SDS011;67472;51.554;7.812;2023-03-13T15:35:26;6.68;;;1.08;;
78197;SDS011;67472;51.554;7.812;2023-03-13T15:38:13;3.85;;;1.23;;
78197;SDS011;67472;51.554;7.812;2023-03-13T15:41:01;5.30;;;1.20;;
78197;SDS011;67472;51.554;7.812;2023-03-13T15:43:46;3.03;;;0.90;;
78197;SDS011;67472;51.554;7.812;2023-03-13T15:46:31;1.63;;;0.90;;
78197;SDS011;67472;51.554;7.812;2023-03-13T15:49:15;1.05;;;0.93;;
78197;SDS011;67472;51.554;7.812;2023-03-13T15:52:00;1.25;;;0.85;;
78197;SDS011;67472;51.554;7.812;2023-03-13T15:54:46;3.40;;;0.95;;
78197;SDS011;67472;51.554;7.812;2023-03-13T15:57:30;2.33;;;0.80;;
78197;SDS011;67472;51.554;7.812;2023-03-13T16:00:16;2.10;;;0.90;;
78197;SDS011;67472;51.554;7.812;2023-03-13T16:03:03;2.20;;;0.98;;
78197;SDS011;67472;51.554;7.812;2023-03-13T16:05:48;5.25;;;0.90;;
78197;SDS011;67472;51.554;7.812;2023-03-13T16:08:34;1.27;;;0.90;;
78197;SDS011;67472;51.554;7.812;2023-03-13T16:11:20;2.38;;;0.98;;
78197;SDS011;67472;51.554;7.812;2023-03-13T16:14:08;0.85;;;0.85;;
78197;SDS011;67472;51.554;7.812;2023-03-13T16:16:52;1.23;;;0.88;;
78197;SDS011;67472;51.554;7.812;2023-03-13T16:19:37;1.13;;;0.80;;
78197;SDS011;67472;51.554;7.812;2023-03-13T16:22:22;5.20;;;1.30;;
78197;SDS011;67472;51.554;7.812;2023-03-13T16:25:07;1.90;;;0.80;;
78197;SDS011;67472;51.554;7.812;2023-03-13T16:27:52;1.75;;;0.93;;
78197;SDS011;67472;51.554;7.812;2023-03-13T16:30:39;2.92;;;0.90;;
78197;SDS011;67472;51.554;7.812;2023-03-13T16:33:26;2.70;;;0.90;;
78197;SDS011;67472;51.554;7.812;2023-03-13T16:36:21;3.83;;;1.00;;
78197;SDS011;67472;51.554;7.812;2023-03-13T16:39:10;3.88;;;0.70;;
78197;SDS011;67472;51.554;7.812;2023-03-13T16:41:58;2.40;;;1.10;;
78197;SDS011;67472;51.554;7.812;2023-03-13T16:44:42;1.05;;;0.95;;
78197;SDS011;67472;51.554;7.812;2023-03-13T16:47:27;1.83;;;1.10;;
78197;SDS011;67472;51.554;7.812;2023-03-13T16:53:05;3.00;;;1.05;;
78197;SDS011;67472;51.554;7.812;2023-03-13T16:55:49;1.30;;;0.88;;
78197;SDS011;67472;51.554;7.812;2023-03-13T16:58:34;4.47;;;1.20;;
78197;SDS011;67472;51.554;7.812;2023-03-13T17:01:19;2.97;;;1.23;;
78197;SDS011;67472;51.554;7.812;2023-03-13T17:04:04;2.83;;;0.90;;
78197;SDS011;67472;51.554;7.812;2023-03-13T17:06:48;2.00;;;1.13;;
78197;SDS011;67472;51.554;7.812;2023-03-13T17:09:34;2.42;;;1.10;;
78197;SDS011;67472;51.554;7.812;2023-03-13T17:12:18;1.15;;;1.10;;
78197;SDS011;67472;51.554;7.812;2023-03-13T17:15:04;1.98;;;1.10;;
78197;SDS011;67472;51.554;7.812;2023-03-13T17:17:50;2.95;;;0.90;;
78197;SDS011;67472;51.554;7.812;2023-03-13T17:20:36;3.00;;;1.40;;
78197;SDS011;67472;51.554;7.812;2023-03-13T17:23:22;2.50;;;1.58;;
78197;SDS011;67472;51.554;7.812;2023-03-13T17:26:13;3.90;;;1.60;;
78197;SDS011;67472;51.554;7.812;2023-03-13T17:28:58;2.50;;;1.60;;
78197;SDS011;67472;51.554;7.812;2023-03-13T17:31:44;1.92;;;1.00;;
78197;SDS011;67472;51.554;7.812;2023-03-13T17:34:28;2.78;;;1.00;;
78197;SDS011;67472;51.554;7.812;2023-03-13T17:37:15;2.45;;;1.40;;
78197;SDS011;67472;51.554;7.812;2023-03-13T17:40:25;3.13;;;1.25;;
78197;SDS011;67472;51.554;7.812;2023-03-13T17:43:11;3.28;;;1.40;;
78197;SDS011;67472;51.554;7.812;2023-03-13T17:45:57;1.90;;;1.30;;
78197;SDS011;67472;51.554;7.812;2023-03-13T17:48:41;3.80;;;1.23;;
78197;SDS011;67472;51.554;7.812;2023-03-13T17:51:28;4.50;;;1.33;;
78197;SDS011;67472;51.554;7.812;2023-03-13T17:54:15;1.83;;;1.20;;
78197;SDS011;67472;51.554;7.812;2023-03-13T17:57:02;2.35;;;1.30;;
78197;SDS011;67472;51.554;7.812;2023-03-13T17:59:48;3.45;;;1.42;;
78197;SDS011;67472;51.554;7.812;2023-03-13T18:02:32;4.15;;;1.58;;
78197;SDS011;67472;51.554;7.812;2023-03-13T18:05:17;2.25;;;0.93;;
78197;SDS011;67472;51.554;7.812;2023-03-13T18:08:01;1.55;;;1.20;;
78197;SDS011;67472;51.554;7.812;2023-03-13T18:10:47;3.22;;;1.65;;
78197;SDS011;67472;51.554;7.812;2023-03-13T18:13:31;3.08;;;1.42;;
78197;SDS011;67472;51.554;7.812;2023-03-13T18:16:17;2.15;;;1.15;;
78197;SDS011;67472;51.554;7.812;2023-03-13T18:19:26;3.90;;;1.67;;
78197;SDS011;67472;51.554;7.812;2023-03-13T18:22:14;2.05;;;1.48;;
78197;SDS011;67472;51.554;7.812;2023-03-13T18:25:01;3.50;;;1.30;;
78197;SDS011;67472;51.554;7.812;2023-03-13T18:27:48;2.72;;;1.67;;
78197;SDS011;67472;51.554;7.812;2023-03-13T18:30:33;4.43;;;1.40;;
78197;SDS011;67472;51.554;7.812;2023-03-13T18:33:19;3.05;;;1.42;;
78197;SDS011;67472;51.554;7.812;2023-03-13T18:36:10;1.90;;;1.00;;
78197;SDS011;67472;51.554;7.812;2023-03-13T18:38:59;2.60;;;1.30;;
78197;SDS011;67472;51.554;7.812;2023-03-13T18:41:44;2.05;;;1.30;;
78197;SDS011;67472;51.554;7.812;2023-03-13T18:44:30;3.72;;;1.98;;
78197;SDS011;67472;51.554;7.812;2023-03-13T18:47:15;2.35;;;1.40;;
78197;SDS011;67472;51.554;7.812;2023-03-13T18:50:08;1.75;;;1.40;;
78197;SDS011;67472;51.554;7.812;2023-03-13T18:53:01;4.80;;;1.67;;
78197;SDS011;67472;51.554;7.812;2023-03-13T18:55:45;3.67;;;1.67;;
78197;SDS011;67472;51.554;7.812;2023-03-13T18:58:30;2.47;;;1.60;;